GAP2771 RPLL-RPSP
Flight info
| Callsign | GAP2771 |
|---|---|
| Flight time | 1h 4m |
| Altitude | 35000 |
| Route | IPATA4V IPATA W25 BATAY BATAY1P |
| Aircraft | A320/M-SDE3FGHIRWY/LB1 |
Departure
| Time | 2026-04-15 08:42 |
|---|---|
| Airport | Ninoy Aquino International Airport (RPLL) |
Arrival
| Time | 2026-04-15 09:46 |
|---|---|
| Airport | Bohol-Panglao International Airport (RPSP) |
| Time | Latitude | Longitude | Altitude | Speed | Heading |
|---|---|---|---|---|---|
| 2026-04-15 08:18 | 14.50911 | 121.01411 | 64 ft | 0 kts | 331° |
| 2026-04-15 08:31 | 14.50899 | 121.01418 | 63 ft | 2 kts | 330° |
| 2026-04-15 08:31 | 14.50886 | 121.01426 | 62 ft | 2 kts | 331° |
| 2026-04-15 08:32 | 14.50873 | 121.01434 | 61 ft | 2 kts | 330° |
| 2026-04-15 08:32 | 14.50859 | 121.01441 | 60 ft | 2 kts | 331° |
| 2026-04-15 08:32 | 14.50845 | 121.01445 | 59 ft | 2 kts | 1° |
| 2026-04-15 08:32 | 14.50830 | 121.01442 | 58 ft | 2 kts | 23° |
| 2026-04-15 08:33 | 14.50817 | 121.01434 | 57 ft | 2 kts | 46° |
| 2026-04-15 08:33 | 14.50812 | 121.01427 | 57 ft | 1 kts | 59° |
| 2026-04-15 08:33 | 14.50809 | 121.01421 | 57 ft | 0 kts | 61° |
| 2026-04-15 08:35 | 14.50810 | 121.01423 | 57 ft | 1 kts | 60° |
| 2026-04-15 08:35 | 14.50824 | 121.01447 | 58 ft | 5 kts | 60° |
| 2026-04-15 08:35 | 14.50853 | 121.01501 | 60 ft | 11 kts | 60° |
| 2026-04-15 08:36 | 14.50902 | 121.01588 | 60 ft | 15 kts | 60° |
| 2026-04-15 08:36 | 14.50948 | 121.01673 | 56 ft | 12 kts | 60° |
| 2026-04-15 08:36 | 14.50967 | 121.01706 | 54 ft | 0 kts | 59° |
| 2026-04-15 08:36 | 14.50968 | 121.01707 | 54 ft | 0 kts | 59° |
| 2026-04-15 08:37 | 14.50968 | 121.01708 | 54 ft | 1 kts | 59° |
| 2026-04-15 08:37 | 14.50984 | 121.01733 | 53 ft | 6 kts | 59° |
| 2026-04-15 08:37 | 14.51019 | 121.01769 | 51 ft | 8 kts | 10° |
| 2026-04-15 08:37 | 14.51075 | 121.01739 | 51 ft | 11 kts | 315° |
| 2026-04-15 08:38 | 14.51136 | 121.01676 | 54 ft | 13 kts | 315° |
| 2026-04-15 08:38 | 14.51206 | 121.01605 | 57 ft | 15 kts | 314° |
| 2026-04-15 08:38 | 14.51293 | 121.01513 | 60 ft | 19 kts | 314° |
| 2026-04-15 08:38 | 14.51402 | 121.01400 | 58 ft | 25 kts | 315° |
| 2026-04-15 08:39 | 14.51538 | 121.01259 | 52 ft | 25 kts | 314° |
| 2026-04-15 08:39 | 14.51668 | 121.01124 | 47 ft | 26 kts | 315° |
| 2026-04-15 08:39 | 14.51804 | 121.00983 | 42 ft | 28 kts | 314° |
| 2026-04-15 08:39 | 14.51929 | 121.00854 | 39 ft | 23 kts | 315° |
| 2026-04-15 08:40 | 14.52049 | 121.00732 | 36 ft | 24 kts | 315° |
| 2026-04-15 08:40 | 14.52170 | 121.00605 | 34 ft | 24 kts | 315° |
| 2026-04-15 08:40 | 14.52257 | 121.00500 | 33 ft | 13 kts | 304° |
| 2026-04-15 08:40 | 14.52272 | 121.00509 | 32 ft | 7 kts | 142° |
| 2026-04-15 08:41 | 14.52248 | 121.00526 | 33 ft | 0 kts | 135° |
| 2026-04-15 08:41 | 14.52246 | 121.00528 | 33 ft | 6 kts | 135° |
| 2026-04-15 08:41 | 14.52024 | 121.00758 | 37 ft | 80 kts | 135° |
| 2026-04-15 08:42 | 14.51481 | 121.01321 | 56 ft | 140 kts | 135° |
| 2026-04-15 08:42 | 14.50680 | 121.02136 | 330 ft | 167 kts | 136° |
| 2026-04-15 08:42 | 14.49849 | 121.02950 | 954 ft | 168 kts | 136° |
| 2026-04-15 08:42 | 14.49021 | 121.03785 | 1585 ft | 170 kts | 136° |
| 2026-04-15 08:43 | 14.48163 | 121.04646 | 2065 ft | 176 kts | 135° |
| 2026-04-15 08:43 | 14.47242 | 121.05570 | 2359 ft | 192 kts | 135° |
| 2026-04-15 08:43 | 14.46236 | 121.06579 | 2658 ft | 208 kts | 134° |
| 2026-04-15 08:43 | 14.45227 | 121.07732 | 2869 ft | 229 kts | 118° |
| 2026-04-15 08:44 | 14.44814 | 121.09351 | 3164 ft | 245 kts | 88° |
| 2026-04-15 08:44 | 14.45021 | 121.11155 | 3542 ft | 262 kts | 79° |
| 2026-04-15 08:44 | 14.45392 | 121.13036 | 4110 ft | 270 kts | 77° |
| 2026-04-15 08:44 | 14.45790 | 121.14924 | 4838 ft | 271 kts | 77° |
| 2026-04-15 08:45 | 14.46185 | 121.16798 | 5565 ft | 273 kts | 77° |
| 2026-04-15 08:45 | 14.46588 | 121.18717 | 6305 ft | 275 kts | 77° |
| 2026-04-15 08:45 | 14.46989 | 121.20650 | 7034 ft | 278 kts | 77° |
| 2026-04-15 08:45 | 14.47386 | 121.22578 | 7740 ft | 280 kts | 77° |
| 2026-04-15 08:46 | 14.47598 | 121.24589 | 8410 ft | 285 kts | 95° |
| 2026-04-15 08:46 | 14.47169 | 121.26596 | 9088 ft | 288 kts | 105° |
| 2026-04-15 08:46 | 14.46561 | 121.28552 | 9741 ft | 291 kts | 107° |
| 2026-04-15 08:46 | 14.45899 | 121.30541 | 10319 ft | 297 kts | 107° |
| 2026-04-15 08:47 | 14.45206 | 121.32606 | 10616 ft | 313 kts | 107° |
| 2026-04-15 08:47 | 14.44336 | 121.34727 | 10969 ft | 328 kts | 121° |
| 2026-04-15 08:47 | 14.42739 | 121.36408 | 11508 ft | 336 kts | 140° |
| 2026-04-15 08:47 | 14.40829 | 121.37842 | 12124 ft | 338 kts | 142° |
| 2026-04-15 08:48 | 14.38907 | 121.39243 | 12646 ft | 342 kts | 142° |
| 2026-04-15 08:48 | 14.36980 | 121.40691 | 13193 ft | 345 kts | 141° |
| 2026-04-15 08:48 | 14.35035 | 121.42196 | 13725 ft | 348 kts | 140° |
| 2026-04-15 08:48 | 14.33123 | 121.43705 | 14237 ft | 351 kts | 140° |
| 2026-04-15 08:49 | 14.31193 | 121.45249 | 14669 ft | 352 kts | 140° |
| 2026-04-15 08:49 | 14.29250 | 121.46812 | 14864 ft | 353 kts | 140° |
| 2026-04-15 08:49 | 14.27320 | 121.48371 | 14873 ft | 352 kts | 140° |
| 2026-04-15 08:49 | 14.25392 | 121.49931 | 14880 ft | 352 kts | 139° |
| 2026-04-15 08:50 | 14.23466 | 121.51490 | 14878 ft | 352 kts | 139° |
| 2026-04-15 08:50 | 14.21518 | 121.53067 | 14885 ft | 352 kts | 139° |
| 2026-04-15 08:50 | 14.19596 | 121.54624 | 14889 ft | 352 kts | 139° |
| 2026-04-15 08:50 | 14.17676 | 121.56181 | 14876 ft | 352 kts | 139° |
| 2026-04-15 08:51 | 14.15734 | 121.57753 | 14889 ft | 352 kts | 139° |
| 2026-04-15 08:51 | 14.13808 | 121.59315 | 14886 ft | 352 kts | 139° |
| 2026-04-15 08:51 | 14.11880 | 121.60877 | 14882 ft | 352 kts | 139° |
| 2026-04-15 08:51 | 14.09938 | 121.62449 | 14883 ft | 352 kts | 139° |
| 2026-04-15 08:52 | 14.08032 | 121.63993 | 14921 ft | 355 kts | 139° |
| 2026-04-15 08:52 | 14.06049 | 121.65601 | 15348 ft | 359 kts | 140° |
| 2026-04-15 08:52 | 14.04100 | 121.67177 | 15942 ft | 358 kts | 140° |
| 2026-04-15 08:52 | 14.02119 | 121.68778 | 16437 ft | 359 kts | 139° |
| 2026-04-15 08:53 | 14.00158 | 121.70364 | 16882 ft | 362 kts | 139° |
| 2026-04-15 08:53 | 13.98142 | 121.71995 | 17343 ft | 364 kts | 139° |
| 2026-04-15 08:53 | 13.96125 | 121.73627 | 17776 ft | 367 kts | 139° |
| 2026-04-15 08:53 | 13.94118 | 121.75250 | 18224 ft | 369 kts | 139° |
| 2026-04-15 08:54 | 13.92108 | 121.76875 | 18666 ft | 370 kts | 139° |
| 2026-04-15 08:54 | 13.90075 | 121.78517 | 19095 ft | 372 kts | 139° |
| 2026-04-15 08:54 | 13.88029 | 121.80170 | 19519 ft | 374 kts | 139° |
| 2026-04-15 08:54 | 13.85948 | 121.81842 | 19926 ft | 376 kts | 140° |
| 2026-04-15 08:55 | 13.83863 | 121.83434 | 20326 ft | 378 kts | 141° |
| 2026-04-15 08:55 | 13.81701 | 121.85054 | 20714 ft | 381 kts | 142° |
| 2026-04-15 08:55 | 13.79558 | 121.86659 | 21098 ft | 383 kts | 142° |
| 2026-04-15 08:55 | 13.77382 | 121.88290 | 21483 ft | 385 kts | 142° |
| 2026-04-15 08:56 | 13.75211 | 121.89924 | 21850 ft | 387 kts | 142° |
| 2026-04-15 08:56 | 13.73039 | 121.91559 | 22218 ft | 389 kts | 142° |
| 2026-04-15 08:56 | 13.70830 | 121.93221 | 22577 ft | 391 kts | 142° |
| 2026-04-15 08:56 | 13.68603 | 121.94899 | 22948 ft | 393 kts | 142° |
| 2026-04-15 08:57 | 13.66394 | 121.96564 | 23299 ft | 395 kts | 142° |
| 2026-04-15 08:57 | 13.64169 | 121.98239 | 23646 ft | 397 kts | 142° |
| 2026-04-15 08:57 | 13.61938 | 121.99921 | 23991 ft | 398 kts | 142° |
| 2026-04-15 08:57 | 13.59663 | 122.01636 | 24329 ft | 400 kts | 142° |
| 2026-04-15 08:58 | 13.57427 | 122.03320 | 24650 ft | 402 kts | 142° |
| 2026-04-15 08:58 | 13.52867 | 122.06752 | 25268 ft | 407 kts | 142° |
| 2026-04-15 08:58 | 13.50557 | 122.08490 | 25574 ft | 409 kts | 143° |
| 2026-04-15 08:59 | 13.48225 | 122.10243 | 25876 ft | 411 kts | 143° |
| 2026-04-15 08:59 | 13.45910 | 122.11985 | 26168 ft | 413 kts | 143° |
| 2026-04-15 08:59 | 13.43562 | 122.13750 | 26462 ft | 415 kts | 143° |
| 2026-04-15 08:59 | 13.41211 | 122.15517 | 26755 ft | 416 kts | 143° |
| 2026-04-15 09:00 | 13.38884 | 122.17266 | 27031 ft | 418 kts | 143° |
| 2026-04-15 09:00 | 13.36508 | 122.19051 | 27313 ft | 420 kts | 143° |
| 2026-04-15 09:00 | 13.34096 | 122.20863 | 27588 ft | 421 kts | 143° |
| 2026-04-15 09:00 | 13.31696 | 122.22666 | 27851 ft | 423 kts | 143° |
| 2026-04-15 09:01 | 13.29345 | 122.24432 | 28116 ft | 424 kts | 143° |
| 2026-04-15 09:01 | 13.26930 | 122.26245 | 28367 ft | 426 kts | 143° |
| 2026-04-15 09:01 | 13.24527 | 122.28049 | 28609 ft | 428 kts | 143° |
| 2026-04-15 09:01 | 13.22107 | 122.29864 | 28850 ft | 430 kts | 143° |
| 2026-04-15 09:02 | 13.19710 | 122.31660 | 29085 ft | 431 kts | 143° |
| 2026-04-15 09:02 | 13.17267 | 122.33491 | 29321 ft | 433 kts | 143° |
| 2026-04-15 09:02 | 13.14842 | 122.35308 | 29551 ft | 434 kts | 143° |
| 2026-04-15 09:02 | 13.12359 | 122.37169 | 29799 ft | 436 kts | 143° |
| 2026-04-15 09:03 | 13.09891 | 122.39020 | 30028 ft | 437 kts | 143° |
| 2026-04-15 09:03 | 13.07399 | 122.40886 | 30255 ft | 439 kts | 143° |
| 2026-04-15 09:03 | 13.04933 | 122.42734 | 30476 ft | 440 kts | 143° |
| 2026-04-15 09:03 | 13.02444 | 122.44598 | 30686 ft | 442 kts | 143° |
| 2026-04-15 09:04 | 12.99957 | 122.46459 | 30902 ft | 443 kts | 143° |
| 2026-04-15 09:04 | 12.97463 | 122.48325 | 31102 ft | 445 kts | 143° |
| 2026-04-15 09:04 | 12.94942 | 122.50211 | 31303 ft | 446 kts | 143° |
| 2026-04-15 09:04 | 12.92433 | 122.52088 | 31505 ft | 448 kts | 143° |
| 2026-04-15 09:05 | 12.89918 | 122.53969 | 31705 ft | 449 kts | 143° |
| 2026-04-15 09:05 | 12.87384 | 122.55864 | 31913 ft | 450 kts | 143° |
| 2026-04-15 09:05 | 12.84800 | 122.57796 | 32106 ft | 452 kts | 143° |
| 2026-04-15 09:05 | 12.82280 | 122.59679 | 32279 ft | 453 kts | 143° |
| 2026-04-15 09:06 | 12.79711 | 122.61598 | 32485 ft | 454 kts | 143° |
| 2026-04-15 09:06 | 12.77157 | 122.63506 | 32775 ft | 452 kts | 143° |
| 2026-04-15 09:06 | 12.74575 | 122.65434 | 33106 ft | 451 kts | 143° |
| 2026-04-15 09:06 | 12.72020 | 122.67342 | 33365 ft | 451 kts | 143° |
| 2026-04-15 09:07 | 12.69475 | 122.69241 | 33578 ft | 451 kts | 143° |
| 2026-04-15 09:07 | 12.66939 | 122.71133 | 33809 ft | 452 kts | 143° |
| 2026-04-15 09:07 | 12.64368 | 122.73052 | 34027 ft | 452 kts | 143° |
| 2026-04-15 09:07 | 12.61822 | 122.74950 | 34227 ft | 453 kts | 143° |
| 2026-04-15 09:08 | 12.59270 | 122.76853 | 34423 ft | 453 kts | 143° |
| 2026-04-15 09:08 | 12.56720 | 122.78754 | 34616 ft | 454 kts | 143° |
| 2026-04-15 09:08 | 12.54147 | 122.80672 | 34800 ft | 454 kts | 143° |
| 2026-04-15 09:08 | 12.51563 | 122.82599 | 34829 ft | 455 kts | 143° |
| 2026-04-15 09:09 | 12.46423 | 122.86430 | 34836 ft | 455 kts | 143° |
| 2026-04-15 09:09 | 12.41285 | 122.90258 | 34844 ft | 455 kts | 143° |
| 2026-04-15 09:10 | 12.36145 | 122.94087 | 34840 ft | 455 kts | 143° |
| 2026-04-15 09:10 | 12.31013 | 122.97901 | 34834 ft | 455 kts | 143° |
| 2026-04-15 09:11 | 12.25889 | 123.01700 | 34837 ft | 455 kts | 143° |
| 2026-04-15 09:11 | 12.20761 | 123.05505 | 34832 ft | 455 kts | 143° |
| 2026-04-15 09:12 | 12.15634 | 123.09310 | 34837 ft | 455 kts | 143° |
| 2026-04-15 09:12 | 12.10481 | 123.13135 | 34836 ft | 455 kts | 143° |
| 2026-04-15 09:13 | 12.05358 | 123.16937 | 34839 ft | 455 kts | 143° |
| 2026-04-15 09:13 | 12.00242 | 123.20730 | 34837 ft | 455 kts | 143° |
| 2026-04-15 09:14 | 11.95092 | 123.24545 | 34833 ft | 454 kts | 143° |
| 2026-04-15 09:14 | 11.89993 | 123.28323 | 34831 ft | 454 kts | 143° |
| 2026-04-15 09:15 | 11.84841 | 123.32138 | 34836 ft | 453 kts | 143° |
| 2026-04-15 09:15 | 11.79724 | 123.35925 | 34832 ft | 453 kts | 143° |
| 2026-04-15 09:16 | 11.74618 | 123.39701 | 34829 ft | 453 kts | 143° |
| 2026-04-15 09:16 | 11.69508 | 123.43480 | 34833 ft | 453 kts | 143° |
| 2026-04-15 09:17 | 11.64390 | 123.47263 | 34834 ft | 453 kts | 143° |
| 2026-04-15 09:17 | 11.59294 | 123.51028 | 34835 ft | 452 kts | 143° |
| 2026-04-15 09:18 | 11.54183 | 123.54801 | 34834 ft | 452 kts | 143° |
| 2026-04-15 09:18 | 11.49082 | 123.58566 | 34834 ft | 451 kts | 143° |
| 2026-04-15 09:19 | 11.43988 | 123.62324 | 34835 ft | 452 kts | 143° |
| 2026-04-15 09:19 | 11.38856 | 123.66110 | 34835 ft | 452 kts | 144° |
| 2026-04-15 09:20 | 11.33741 | 123.69883 | 34836 ft | 452 kts | 144° |
| 2026-04-15 09:20 | 11.28673 | 123.73619 | 34835 ft | 451 kts | 144° |
| 2026-04-15 09:21 | 11.23551 | 123.77393 | 34836 ft | 451 kts | 144° |
| 2026-04-15 09:21 | 11.18343 | 123.80955 | 34838 ft | 451 kts | 150° |
| 2026-04-15 09:22 | 11.12658 | 123.83765 | 34835 ft | 451 kts | 158° |
| 2026-04-15 09:22 | 11.09679 | 123.84848 | 34544 ft | 452 kts | 162° |
| 2026-04-15 09:22 | 11.06655 | 123.85696 | 33903 ft | 451 kts | 166° |
| 2026-04-15 09:23 | 11.03594 | 123.86320 | 33106 ft | 452 kts | 169° |
| 2026-04-15 09:23 | 11.00483 | 123.86866 | 32315 ft | 453 kts | 169° |
| 2026-04-15 09:23 | 10.97381 | 123.87400 | 31715 ft | 449 kts | 169° |
| 2026-04-15 09:23 | 10.94280 | 123.87933 | 31253 ft | 443 kts | 170° |
| 2026-04-15 09:24 | 10.91265 | 123.88452 | 30794 ft | 438 kts | 170° |
| 2026-04-15 09:24 | 10.88250 | 123.88973 | 30332 ft | 433 kts | 170° |
| 2026-04-15 09:24 | 10.85278 | 123.89487 | 29874 ft | 428 kts | 170° |
| 2026-04-15 09:24 | 10.82363 | 123.89992 | 29417 ft | 423 kts | 170° |
| 2026-04-15 09:25 | 10.79476 | 123.90493 | 28959 ft | 419 kts | 170° |
| 2026-04-15 09:25 | 10.76587 | 123.90994 | 28503 ft | 415 kts | 170° |
| 2026-04-15 09:25 | 10.73736 | 123.91486 | 28061 ft | 411 kts | 170° |
| 2026-04-15 09:25 | 10.70957 | 123.91966 | 27613 ft | 408 kts | 169° |
| 2026-04-15 09:26 | 10.68131 | 123.92454 | 27124 ft | 406 kts | 169° |
| 2026-04-15 09:26 | 10.65333 | 123.92939 | 26628 ft | 404 kts | 169° |
| 2026-04-15 09:26 | 10.62546 | 123.93422 | 26133 ft | 403 kts | 169° |
| 2026-04-15 09:26 | 10.59789 | 123.93900 | 25637 ft | 401 kts | 169° |
| 2026-04-15 09:27 | 10.57039 | 123.94376 | 25139 ft | 400 kts | 168° |
| 2026-04-15 09:27 | 10.54298 | 123.94851 | 24641 ft | 399 kts | 168° |
| 2026-04-15 09:27 | 10.51564 | 123.95324 | 24132 ft | 398 kts | 168° |
| 2026-04-15 09:27 | 10.48822 | 123.95798 | 23624 ft | 397 kts | 168° |
| 2026-04-15 09:28 | 10.46098 | 123.96271 | 23120 ft | 396 kts | 167° |
| 2026-04-15 09:28 | 10.43366 | 123.96744 | 22608 ft | 395 kts | 167° |
| 2026-04-15 09:28 | 10.40671 | 123.97212 | 22090 ft | 395 kts | 167° |
| 2026-04-15 09:28 | 10.37937 | 123.97687 | 21571 ft | 394 kts | 167° |
| 2026-04-15 09:29 | 10.35243 | 123.98154 | 21099 ft | 392 kts | 167° |
| 2026-04-15 09:29 | 10.32554 | 123.98612 | 20634 ft | 390 kts | 168° |
| 2026-04-15 09:29 | 10.29843 | 123.98936 | 20184 ft | 389 kts | 172° |
| 2026-04-15 09:29 | 10.27163 | 123.99136 | 19744 ft | 387 kts | 173° |
| 2026-04-15 09:30 | 10.24479 | 123.99322 | 19318 ft | 384 kts | 173° |
| 2026-04-15 09:30 | 10.21820 | 123.99504 | 18893 ft | 381 kts | 173° |
| 2026-04-15 09:30 | 10.19176 | 123.99686 | 18467 ft | 378 kts | 173° |
| 2026-04-15 09:30 | 10.16518 | 123.99871 | 18018 ft | 376 kts | 173° |
| 2026-04-15 09:31 | 10.13913 | 124.00053 | 17582 ft | 375 kts | 173° |
| 2026-04-15 09:31 | 10.11308 | 124.00236 | 17155 ft | 373 kts | 173° |
| 2026-04-15 09:31 | 10.08709 | 124.00419 | 16708 ft | 372 kts | 173° |
| 2026-04-15 09:31 | 10.06139 | 124.00600 | 16263 ft | 370 kts | 173° |
| 2026-04-15 09:32 | 10.03544 | 124.00783 | 15813 ft | 369 kts | 173° |
| 2026-04-15 09:32 | 10.01004 | 124.00962 | 15370 ft | 368 kts | 173° |
| 2026-04-15 09:32 | 9.98439 | 124.01143 | 14914 ft | 366 kts | 173° |
| 2026-04-15 09:32 | 9.95896 | 124.01321 | 14464 ft | 364 kts | 173° |
| 2026-04-15 09:33 | 9.93360 | 124.01498 | 14030 ft | 363 kts | 174° |
| 2026-04-15 09:33 | 9.90829 | 124.01598 | 13575 ft | 363 kts | 181° |
| 2026-04-15 09:33 | 9.88343 | 124.01172 | 13118 ft | 364 kts | 195° |
| 2026-04-15 09:33 | 9.85975 | 124.00252 | 12671 ft | 363 kts | 202° |
| 2026-04-15 09:34 | 9.83645 | 123.99202 | 12229 ft | 360 kts | 203° |
| 2026-04-15 09:34 | 9.81371 | 123.98160 | 11804 ft | 357 kts | 203° |
| 2026-04-15 09:34 | 9.79115 | 123.97134 | 11386 ft | 354 kts | 202° |
| 2026-04-15 09:34 | 9.76848 | 123.96112 | 10954 ft | 351 kts | 202° |
| 2026-04-15 09:35 | 9.74635 | 123.95121 | 10523 ft | 348 kts | 202° |
| 2026-04-15 09:35 | 9.72430 | 123.94138 | 10241 ft | 340 kts | 202° |
| 2026-04-15 09:35 | 9.70295 | 123.93186 | 10122 ft | 326 kts | 202° |
| 2026-04-15 09:35 | 9.68262 | 123.92281 | 9989 ft | 315 kts | 202° |
| 2026-04-15 09:36 | 9.66246 | 123.91385 | 9621 ft | 312 kts | 202° |
| 2026-04-15 09:36 | 9.64252 | 123.90498 | 9250 ft | 310 kts | 202° |
| 2026-04-15 09:36 | 9.62310 | 123.89562 | 8883 ft | 308 kts | 205° |
| 2026-04-15 09:36 | 9.60390 | 123.88579 | 8521 ft | 306 kts | 206° |
| 2026-04-15 09:37 | 9.58499 | 123.87601 | 8166 ft | 299 kts | 206° |
| 2026-04-15 09:37 | 9.56695 | 123.86668 | 7818 ft | 288 kts | 206° |
| 2026-04-15 09:37 | 9.54897 | 123.85741 | 7480 ft | 284 kts | 206° |
| 2026-04-15 09:37 | 9.53144 | 123.84839 | 7153 ft | 283 kts | 206° |
| 2026-04-15 09:38 | 9.51389 | 123.83936 | 6823 ft | 282 kts | 206° |
| 2026-04-15 09:38 | 9.49625 | 123.83031 | 6489 ft | 281 kts | 206° |
| 2026-04-15 09:38 | 9.47890 | 123.82138 | 6163 ft | 280 kts | 206° |
| 2026-04-15 09:38 | 9.46155 | 123.81246 | 5824 ft | 279 kts | 206° |
| 2026-04-15 09:39 | 9.44416 | 123.80352 | 5517 ft | 277 kts | 206° |
| 2026-04-15 09:39 | 9.42717 | 123.79479 | 5198 ft | 267 kts | 206° |
| 2026-04-15 09:39 | 9.41085 | 123.78639 | 4862 ft | 263 kts | 206° |
| 2026-04-15 09:39 | 9.39437 | 123.77793 | 4536 ft | 262 kts | 206° |
| 2026-04-15 09:40 | 9.37837 | 123.76914 | 4226 ft | 260 kts | 217° |
| 2026-04-15 09:40 | 9.36771 | 123.75503 | 4020 ft | 248 kts | 255° |
| 2026-04-15 09:40 | 9.36641 | 123.73843 | 3907 ft | 233 kts | 285° |
| 2026-04-15 09:40 | 9.37256 | 123.72380 | 3776 ft | 220 kts | 304° |
| 2026-04-15 09:41 | 9.38056 | 123.71101 | 3642 ft | 211 kts | 306° |
| 2026-04-15 09:41 | 9.38837 | 123.69856 | 3506 ft | 203 kts | 305° |
| 2026-04-15 09:41 | 9.39562 | 123.68681 | 3465 ft | 195 kts | 307° |
| 2026-04-15 09:41 | 9.40557 | 123.67808 | 3298 ft | 186 kts | 343° |
| 2026-04-15 09:42 | 9.41812 | 123.67782 | 3149 ft | 180 kts | 19° |
| 2026-04-15 09:42 | 9.42902 | 123.68372 | 3035 ft | 179 kts | 32° |
| 2026-04-15 09:42 | 9.43969 | 123.69030 | 2894 ft | 179 kts | 32° |
| 2026-04-15 09:42 | 9.45042 | 123.69682 | 2719 ft | 180 kts | 31° |
| 2026-04-15 09:43 | 9.46129 | 123.70337 | 2489 ft | 178 kts | 31° |
| 2026-04-15 09:43 | 9.47167 | 123.70959 | 2210 ft | 168 kts | 31° |
| 2026-04-15 09:43 | 9.48148 | 123.71545 | 1943 ft | 157 kts | 31° |
| 2026-04-15 09:43 | 9.49057 | 123.72086 | 1703 ft | 144 kts | 32° |
| 2026-04-15 09:44 | 9.49886 | 123.72581 | 1521 ft | 138 kts | 32° |
| 2026-04-15 09:44 | 9.50715 | 123.73077 | 1349 ft | 137 kts | 32° |
| 2026-04-15 09:44 | 9.51551 | 123.73576 | 1165 ft | 137 kts | 32° |
| 2026-04-15 09:44 | 9.52372 | 123.74068 | 986 ft | 136 kts | 32° |
| 2026-04-15 09:45 | 9.53182 | 123.74550 | 810 ft | 136 kts | 32° |
| 2026-04-15 09:45 | 9.54005 | 123.75042 | 631 ft | 135 kts | 32° |
| 2026-04-15 09:45 | 9.54819 | 123.75537 | 451 ft | 135 kts | 32° |
| 2026-04-15 09:45 | 9.55624 | 123.76015 | 273 ft | 134 kts | 32° |
| 2026-04-15 09:46 | 9.56428 | 123.76488 | 79 ft | 132 kts | 31° |
| 2026-04-15 09:46 | 9.57177 | 123.76939 | 42 ft | 106 kts | 30° |
| 2026-04-15 09:46 | 9.57666 | 123.77228 | 45 ft | 53 kts | 31° |
| 2026-04-15 09:46 | 9.57863 | 123.77345 | 46 ft | 17 kts | 27° |
| 2026-04-15 09:47 | 9.57902 | 123.77374 | 47 ft | 3 kts | 133° |
| 2026-04-15 09:47 | 9.57864 | 123.77356 | 46 ft | 9 kts | 218° |
| 2026-04-15 09:47 | 9.57801 | 123.77310 | 46 ft | 13 kts | 211° |
| 2026-04-15 09:47 | 9.57703 | 123.77252 | 45 ft | 19 kts | 211° |
| 2026-04-15 09:48 | 9.57574 | 123.77175 | 43 ft | 24 kts | 210° |
| 2026-04-15 09:48 | 9.57447 | 123.77098 | 43 ft | 18 kts | 211° |
| 2026-04-15 09:48 | 9.57352 | 123.77103 | 43 ft | 15 kts | 129° |
| 2026-04-15 09:48 | 9.57295 | 123.77203 | 44 ft | 16 kts | 122° |
| 2026-04-15 09:49 | 9.57218 | 123.77236 | 45 ft | 13 kts | 201° |
| 2026-04-15 09:49 | 9.57126 | 123.77183 | 46 ft | 16 kts | 211° |
| 2026-04-15 09:49 | 9.57049 | 123.77137 | 46 ft | 7 kts | 211° |
| 2026-04-15 09:49 | 9.57010 | 123.77158 | 47 ft | 7 kts | 119° |
| 2026-04-15 09:50 | 9.56986 | 123.77200 | 47 ft | 4 kts | 121° |
| 2026-04-15 09:50 | 9.56982 | 123.77206 | 47 ft | 0 kts | 121° |